Anastasia Island, Florida
Current Conditions -  °F | °C
As of 3:58 PM on Wednesday 26 Nov 2014 (Local Time) from KSGJ Reporting Station
Clear Clear  
Wind Chill: 61°   Ceiling: Unl
Heat Index: 61°   Visibility: 10mi
Dew Point: 45°   Wind: 9mph
Humidity: 56%   Direction: 290°WNW
Pressure: 30.13"   Gusts: NA
Location:  29.8475°N, 81.2787°W
Report Text: KSGJ 262058Z 29008KT 10SM CLR 16/07 A3013 RMK AO2 SLP203 T01610072 53005
Loading
Personal Weather Stations






























Interactive Weather Map New forecast layout! Learn more

10-Day Weather Forecast

Advertisements
Track Severe Weather on mobile